Time;durP1;ratioP1;P1;durP2;ratioP2;P2;SDS_P1;SDS_P2;PMS_P1;PMS_P2;Temp;Humidity;BMP_temperature;BMP_pressure;BME280_temperature;BME280_humidity;BME280_pressure;Samples;Min_cycle;Max_cycle;Signal;HPM_P1;HPM_P2
2022/02/09 00:03:40;;;;;;;7.73;1.23;;;10.70;99.90;;;;;;5000224;28;20262;-95
2022/02/09 00:06:09;;;;;;;12.67;0.80;;;10.70;99.90;;;;;;4999789;28;20269;-92
2022/02/09 00:08:35;;;;;;;0.77;0.67;;;10.70;99.90;;;;;;4999058;28;20593;-94
2022/02/09 00:11:05;;;;;;;1.23;1.13;;;10.70;99.90;;;;;;4999056;28;20191;-92
2022/02/09 00:21:36;;;;;;;6.00;0.70;;;10.60;99.90;;;;;;5002598;28;20231;-93
2022/02/09 00:24:06;;;;;;;3.63;1.70;;;10.60;99.90;;;;;;4997330;28;20674;-90
2022/02/09 00:35:07;;;;;;;1.87;0.60;;;10.60;99.90;;;;;;4999407;28;20299;-95
2022/02/09 01:38:19;;;;;;;0.93;0.80;;;10.00;99.90;;;;;;4999546;28;20214;-92
2022/02/09 01:56:32;;;;;;;2.53;1.33;;;10.10;99.90;;;;;;5002754;28;20300;-91
2022/02/09 01:58:58;;;;;;;1.27;1.03;;;10.10;99.90;;;;;;5002341;28;20693;-93
2022/02/09 02:01:24;;;;;;;9.20;0.83;;;10.10;99.90;;;;;;4981160;28;20199;-95
2022/02/09 02:03:50;;;;;;;3.07;0.60;;;10.10;99.90;;;;;;4987281;28;20281;-94
2022/02/09 02:06:18;;;;;;;4.17;1.10;;;10.20;99.90;;;;;;5001939;28;20219;-93
2022/02/09 02:08:45;;;;;;;2.00;1.37;;;10.20;99.90;;;;;;4982481;28;20237;-94
2022/02/09 02:11:22;;;;;;;1.67;0.90;;;10.10;99.90;;;;;;5002556;28;20199;-96
2022/02/09 02:16:36;;;;;;;7.87;1.10;;;10.10;99.90;;;;;;5007093;28;20211;-95
2022/02/09 02:19:20;;;;;;;0.50;0.50;;;10.10;99.90;;;;;;5004643;28;20238;-93
2022/02/09 02:25:09;;;;;;;1.90;0.70;;;10.20;99.90;;;;;;4999366;28;20228;-93
2022/02/09 03:07:45;;;;;;;0.43;0.37;;;10.20;99.90;;;;;;4983827;28;20242;-92
2022/02/09 03:11:09;;;;;;;0.90;0.90;;;10.20;99.90;;;;;;4958337;28;20204;-95
2022/02/09 03:13:40;;;;;;;1.13;0.90;;;10.20;99.90;;;;;;4997316;28;20198;-94
2022/02/09 03:16:13;;;;;;;3.50;0.90;;;10.20;99.90;;;;;;4997212;28;20250;-91
2022/02/09 03:23:59;;;;;;;6.77;1.00;;;10.20;99.90;;;;;;4984496;28;20782;-94
2022/02/09 03:43:01;;;;;;;5.93;1.03;;;10.10;99.90;;;;;;4997128;28;20765;-93
2022/02/09 03:45:50;;;;;;;0.87;0.73;;;10.10;99.90;;;;;;4989736;28;20230;-94
2022/02/09 03:56:13;;;;;;;3.37;1.93;;;10.10;99.90;;;;;;4997139;28;20226;-94
2022/02/09 03:58:24;;;;;;;5.13;0.70;;;10.00;99.90;;;;;;4997451;28;20235;-94
2022/02/09 04:00:50;;;;;;;2.20;1.00;;;10.10;99.90;;;;;;5001079;28;20247;-93
2022/02/09 04:03:20;;;;;;;3.43;1.90;;;10.00;99.90;;;;;;5001036;28;20238;-94
2022/02/09 04:05:48;;;;;;;3.90;0.63;;;10.00;99.90;;;;;;4991124;28;20223;-94
2022/02/09 04:08:16;;;;;;;2.47;0.87;;;10.00;99.90;;;;;;5000746;28;20215;-92
2022/02/09 04:10:49;;;;;;;0.60;0.60;;;10.00;99.90;;;;;;4982507;28;20223;-91
2022/02/09 04:16:01;;;;;;;1.77;0.77;;;9.90;99.90;;;;;;4996776;28;20227;-93
2022/02/09 04:37:43;;;;;;;2.60;0.97;;;9.80;99.90;;;;;;4995871;28;20703;-93
2022/02/09 04:40:13;;;;;;;0.40;0.40;;;9.80;99.90;;;;;;4996733;28;21003;-93
2022/02/09 04:45:44;;;;;;;3.67;1.90;;;9.80;99.90;;;;;;4998431;28;20227;-94
2022/02/09 04:48:37;;;;;;;2.10;0.70;;;9.80;99.90;;;;;;5000575;28;20211;-94
2022/02/09 04:51:32;;;;;;;8.00;1.73;;;9.80;99.90;;;;;;4995384;28;20243;-94
2022/02/09 05:02:29;;;;;;;0.90;0.43;;;9.80;99.90;;;;;;5002185;28;20195;-90
2022/02/09 05:24:04;;;;;;;1.77;1.13;;;9.80;99.90;;;;;;4998840;28;20251;-91
2022/02/09 05:26:46;;;;;;;0.53;0.50;;;9.80;99.90;;;;;;4994994;28;20220;-90
2022/02/09 05:29:12;;;;;;;2.73;0.97;;;9.80;99.90;;;;;;4999533;28;20297;-93
2022/02/09 05:31:38;;;;;;;9.00;1.20;;;9.80;99.90;;;;;;5000162;28;20646;-94
2022/02/09 05:34:04;;;;;;;0.97;0.83;;;9.80;99.90;;;;;;4984405;28;20220;-94
2022/02/09 05:36:30;;;;;;;1.43;1.43;;;9.80;99.90;;;;;;5002862;28;20274;-92
2022/02/09 05:38:56;;;;;;;0.47;0.30;;;9.80;99.90;;;;;;4985098;28;20216;-90
2022/02/09 05:41:22;;;;;;;2.00;1.83;;;9.80;99.90;;;;;;4996953;28;20239;-89
2022/02/09 05:43:48;;;;;;;5.73;0.30;;;9.80;99.90;;;;;;4999595;28;20315;-91
2022/02/09 05:46:55;;;;;;;0.50;0.50;;;9.80;99.90;;;;;;4992374;28;20657;-93
2022/02/09 05:51:57;;;;;;;2.30;1.00;;;9.80;99.90;;;;;;4997964;28;20746;-93
2022/02/09 05:57:23;;;;;;;0.70;0.70;;;9.70;99.90;;;;;;4999869;28;20261;-90
2022/02/09 05:59:49;;;;;;;5.40;1.57;;;9.70;99.90;;;;;;4998819;28;20235;-92
2022/02/09 06:02:16;;;;;;;4.07;0.80;;;9.80;99.90;;;;;;4989546;28;20228;-90
2022/02/09 06:04:43;;;;;;;4.03;0.60;;;9.80;99.90;;;;;;4996228;28;20179;-91
2022/02/09 06:07:09;;;;;;;3.00;1.57;;;9.80;99.90;;;;;;5000543;28;20318;-91
2022/02/09 06:09:36;;;;;;;2.07;1.17;;;9.80;99.90;;;;;;4999853;28;20307;-90
2022/02/09 06:19:53;;;;;;;7.30;0.80;;;9.80;99.90;;;;;;4998366;28;20191;-92
2022/02/09 06:22:23;;;;;;;0.10;0.10;;;9.80;99.90;;;;;;4998996;28;20234;-93
2022/02/09 06:24:48;;;;;;;2.10;0.50;;;9.70;99.90;;;;;;4998735;28;20227;-93
2022/02/09 06:27:14;;;;;;;0.70;0.70;;;9.70;99.90;;;;;;4999492;28;20690;-93
2022/02/09 06:29:45;;;;;;;3.77;0.80;;;9.80;99.90;;;;;;4992098;28;20658;-90
2022/02/09 06:32:11;;;;;;;0.87;0.63;;;9.80;99.90;;;;;;4998443;28;20211;-93
2022/02/09 06:34:39;;;;;;;3.07;1.30;;;9.80;99.90;;;;;;4999247;28;20195;-93
2022/02/09 06:39:38;;;;;;;3.37;1.50;;;9.80;99.90;;;;;;5000911;28;20227;-92
2022/02/09 06:42:04;;;;;;;13.37;1.53;;;9.70;99.90;;;;;;4998105;28;20227;-90
2022/02/09 06:44:32;;;;;;;0.50;0.50;;;9.70;99.90;;;;;;4981654;28;20285;-91
2022/02/09 06:46:57;;;;;;;2.80;1.03;;;9.70;99.90;;;;;;4983585;28;20222;-92
2022/02/09 06:49:23;;;;;;;1.03;0.90;;;9.70;99.90;;;;;;5001269;28;20718;-92
2022/02/09 06:51:49;;;;;;;3.43;1.13;;;9.60;99.90;;;;;;4998389;28;20338;-90
2022/02/09 06:54:30;;;;;;;0.67;0.67;;;9.60;99.90;;;;;;4973585;28;20331;-92
2022/02/09 06:57:28;;;;;;;0.60;0.57;;;9.50;99.90;;;;;;4997595;28;20223;-92
2022/02/09 06:59:45;;;;;;;4.43;1.13;;;9.50;99.90;;;;;;4997928;28;20785;-93
2022/02/09 07:02:11;;;;;;;8.03;0.73;;;9.40;99.90;;;;;;4994755;28;20224;-94
2022/02/09 07:04:37;;;;;;;0.57;0.57;;;9.40;99.90;;;;;;4997469;28;20191;-89
2022/02/09 07:07:05;;;;;;;6.77;1.43;;;9.40;99.90;;;;;;4994487;28;20222;-92
2022/02/09 07:09:32;;;;;;;2.13;1.37;;;9.40;99.90;;;;;;4992501;28;20234;-92
2022/02/09 07:11:58;;;;;;;2.77;0.93;;;9.40;99.90;;;;;;4995588;28;20679;-91
2022/02/09 07:14:27;;;;;;;0.83;0.67;;;9.30;99.90;;;;;;4994802;28;20306;-92
2022/02/09 07:16:54;;;;;;;1.27;1.00;;;9.40;99.90;;;;;;4992556;28;20191;-86
2022/02/09 07:19:21;;;;;;;0.77;0.77;;;9.30;99.90;;;;;;4995812;28;20484;-87
2022/02/09 07:21:47;;;;;;;1.57;0.77;;;9.40;99.90;;;;;;4992678;28;20215;-86
2022/02/09 07:24:18;;;;;;;1.03;0.80;;;9.30;99.90;;;;;;4991950;28;20226;-86
2022/02/09 07:29:13;;;;;;;0.80;0.60;;;9.40;99.90;;;;;;4996216;28;20199;-88
2022/02/09 07:31:39;;;;;;;1.20;1.17;;;9.40;99.90;;;;;;4997645;28;20262;-91
2022/02/09 07:34:05;;;;;;;4.53;1.83;;;9.40;99.90;;;;;;4990544;28;20219;-92
2022/02/09 07:36:38;;;;;;;3.37;1.20;;;9.40;99.90;;;;;;4997009;28;20219;-94
2022/02/09 07:39:05;;;;;;;7.43;2.10;;;9.40;99.90;;;;;;4997138;28;20220;-93
2022/02/09 07:41:32;;;;;;;3.67;0.37;;;9.40;99.90;;;;;;4996775;28;20268;-92
2022/02/09 07:47:01;;;;;;;1.40;0.87;;;9.50;99.90;;;;;;4994255;28;20577;-94
2022/02/09 07:52:22;;;;;;;1.33;0.47;;;9.50;99.90;;;;;;4981549;28;20266;-89
2022/02/09 07:54:48;;;;;;;4.93;0.87;;;9.50;99.90;;;;;;4995797;28;20233;-93
2022/02/09 07:57:14;;;;;;;0.50;0.50;;;9.60;99.90;;;;;;4994619;28;20874;-92
2022/02/09 07:59:39;;;;;;;1.03;1.03;;;9.60;99.90;;;;;;4982906;28;20270;-92
2022/02/09 08:02:06;;;;;;;0.70;0.47;;;9.60;99.90;;;;;;4972109;28;20310;-93
2022/02/09 08:04:32;;;;;;;0.67;0.53;;;9.60;99.90;;;;;;4996882;28;20416;-92
2022/02/09 08:06:58;;;;;;;5.60;1.13;;;9.60;99.90;;;;;;4980247;28;20285;-92
2022/02/09 08:09:35;;;;;;;3.13;0.60;;;9.70;99.90;;;;;;4978510;28;20223;-91
2022/02/09 08:20:31;;;;;;;0.60;0.60;;;9.80;99.90;;;;;;4996152;28;20192;-91
2022/02/09 08:33:20;;;;;;;2.40;0.80;;;10.20;99.90;;;;;;4993498;28;20232;-91
2022/02/09 08:35:47;;;;;;;4.60;1.13;;;10.30;99.90;;;;;;4978694;28;20225;-90
2022/02/09 08:38:14;;;;;;;0.47;0.47;;;10.30;99.90;;;;;;4995591;28;20233;-91
2022/02/09 08:40:40;;;;;;;2.50;0.67;;;10.30;99.90;;;;;;4995491;28;20191;-93
2022/02/09 08:43:08;;;;;;;2.63;0.87;;;10.20;99.90;;;;;;4986165;28;20266;-92
2022/02/09 08:45:35;;;;;;;6.63;0.60;;;10.20;99.90;;;;;;4971633;28;20222;-91
2022/02/09 08:48:01;;;;;;;1.77;0.67;;;10.30;99.90;;;;;;4996990;28;20290;-92
2022/02/09 08:50:27;;;;;;;29.27;1.47;;;10.20;99.90;;;;;;4994673;28;20284;-93
2022/02/09 08:52:53;;;;;;;2.60;1.67;;;10.20;99.90;;;;;;4996081;28;20191;-90
2022/02/09 08:55:19;;;;;;;1.67;0.73;;;10.20;99.90;;;;;;4987182;28;20196;-92
2022/02/09 08:57:46;;;;;;;1.67;0.90;;;10.20;99.90;;;;;;4996229;28;20258;-93
2022/02/09 09:00:20;;;;;;;1.23;0.97;;;10.20;99.90;;;;;;4996882;28;20613;-88
2022/02/09 09:02:52;;;;;;;8.00;1.43;;;10.20;99.90;;;;;;4993488;28;20258;-92
2022/02/09 09:05:24;;;;;;;1.97;0.70;;;10.20;99.90;;;;;;4993964;28;20230;-90
2022/02/09 09:08:04;;;;;;;7.20;1.30;;;10.20;99.90;;;;;;4977784;28;20358;-92
2022/02/09 09:10:39;;;;;;;2.17;1.07;;;10.20;99.90;;;;;;4992616;28;20219;-90
2022/02/09 10:33:57;;;;;;;0.83;0.83;;;10.70;99.90;;;;;;4996177;28;20744;-88
2022/02/09 10:36:24;;;;;;;1.67;0.80;;;10.60;99.90;;;;;;4994979;28;20219;-88
2022/02/09 10:39:10;;;;;;;1.13;0.73;;;10.70;99.90;;;;;;4984626;28;20327;-89
2022/02/09 10:41:48;;;;;;;2.27;0.83;;;10.60;99.90;;;;;;4996944;28;20227;-87
2022/02/09 10:44:16;;;;;;;0.53;0.53;;;10.60;99.90;;;;;;4997607;28;20238;-86
2022/02/09 10:46:55;;;;;;;8.40;1.43;;;10.50;99.90;;;;;;4983612;28;20201;-86
2022/02/09 10:49:24;;;;;;;0.67;0.67;;;10.50;99.90;;;;;;4998182;28;20218;-85
2022/02/09 10:52:03;;;;;;;2.20;0.63;;;10.50;99.90;;;;;;4981188;28;20228;-88
2022/02/09 10:54:31;;;;;;;0.50;0.43;;;10.50;99.90;;;;;;4990017;28;20264;-87
2022/02/09 10:57:04;;;;;;;2.77;1.33;;;10.50;99.90;;;;;;4973846;28;20223;-86
2022/02/09 10:59:37;;;;;;;1.87;1.70;;;10.40;99.90;;;;;;4995915;28;20215;-92
2022/02/09 11:02:05;;;;;;;0.13;0.13;;;10.40;99.90;;;;;;4988477;28;20283;-88
2022/02/09 11:04:33;;;;;;;1.23;0.70;;;10.40;99.90;;;;;;4996577;28;20195;-89
2022/02/09 11:07:00;;;;;;;0.60;0.60;;;10.40;99.90;;;;;;4996476;28;20262;-88
2022/02/09 11:09:27;;;;;;;5.70;1.53;;;10.30;99.90;;;;;;4996912;28;21010;-90
2022/02/09 11:11:53;;;;;;;0.67;0.67;;;10.30;99.90;;;;;;4980492;28;20363;-88
2022/02/09 11:14:24;;;;;;;3.70;0.50;;;10.30;99.90;;;;;;4997084;28;20602;-90
2022/02/09 11:16:53;;;;;;;7.03;2.10;;;10.30;99.90;;;;;;4988673;28;20194;-89
2022/02/09 11:19:31;;;;;;;2.23;1.20;;;10.20;99.90;;;;;;4995886;28;20661;-92
2022/02/09 11:22:15;;;;;;;3.23;1.23;;;10.30;99.90;;;;;;4996440;28;20745;-89
2022/02/09 11:24:47;;;;;;;0.30;0.20;;;10.20;99.90;;;;;;4996062;28;20226;-91
2022/02/09 11:29:58;;;;;;;7.00;1.07;;;10.20;99.90;;;;;;4997533;28;20241;-89
2022/02/09 11:40:41;;;;;;;0.67;0.67;;;10.10;99.90;;;;;;4998356;28;20326;-91
2022/02/09 11:43:34;;;;;;;7.73;1.00;;;10.20;99.90;;;;;;4995965;28;20274;-91
2022/02/09 12:11:09;;;;;;;7.40;1.30;;;10.20;99.90;;;;;;4995578;28;20598;-91
2022/02/09 12:16:49;;;;;;;0.50;0.50;;;10.10;99.90;;;;;;4997679;28;20220;-87
2022/02/09 12:19:29;;;;;;;0.93;0.77;;;10.10;99.90;;;;;;4997773;28;20231;-86
2022/02/09 12:22:04;;;;;;;1.00;0.90;;;10.20;99.90;;;;;;4995239;28;20228;-87
2022/02/09 12:24:35;;;;;;;1.20;0.43;;;10.30;99.90;;;;;;4994828;28;20262;-87
2022/02/09 12:27:13;;;;;;;1.60;1.50;;;10.30;99.90;;;;;;4978076;28;20237;-86
2022/02/09 12:29:44;;;;;;;5.70;0.70;;;10.30;99.90;;;;;;4996984;28;20207;-89
2022/02/09 12:32:16;;;;;;;4.33;0.70;;;10.20;99.90;;;;;;4998879;28;20207;-86
2022/02/09 12:35:01;;;;;;;4.23;1.20;;;10.30;99.90;;;;;;4996976;28;20675;-87
2022/02/09 12:37:30;;;;;;;3.70;1.37;;;10.30;99.90;;;;;;4996353;28;20266;-86
2022/02/09 12:40:02;;;;;;;4.07;0.87;;;10.20;99.90;;;;;;4994131;28;20216;-88
2022/02/09 12:42:31;;;;;;;1.93;1.07;;;10.30;99.90;;;;;;4995334;28;20243;-88
2022/02/09 12:45:31;;;;;;;10.93;1.10;;;10.30;99.90;;;;;;4995368;28;20219;-87
2022/02/09 12:48:03;;;;;;;8.50;2.37;;;10.30;99.90;;;;;;4945064;28;20579;-87
2022/02/09 12:50:33;;;;;;;0.40;0.40;;;10.30;99.90;;;;;;4996661;28;20223;-87
2022/02/09 12:53:02;;;;;;;2.63;1.87;;;10.30;99.90;;;;;;4997172;28;20204;-88
2022/02/09 12:55:30;;;;;;;0.40;0.40;;;10.40;99.90;;;;;;4996851;28;20233;-88
2022/02/09 12:58:05;;;;;;;0.27;0.27;;;10.40;99.90;;;;;;4996067;28;20211;-86
2022/02/09 13:00:51;;;;;;;2.50;0.73;;;10.40;99.90;;;;;;4996668;28;20226;-87
2022/02/09 13:03:21;;;;;;;2.70;1.87;;;10.40;99.90;;;;;;4978828;28;20258;-87
2022/02/09 13:05:52;;;;;;;3.70;0.90;;;10.20;99.90;;;;;;4984673;28;21004;-87
2022/02/09 13:08:27;;;;;;;1.50;0.93;;;10.20;99.90;;;;;;4996527;28;20226;-86
2022/02/09 13:11:05;;;;;;;7.03;0.60;;;10.20;99.90;;;;;;5001327;28;20182;-88
2022/02/09 13:13:33;;;;;;;3.23;0.93;;;10.30;99.90;;;;;;4999087;28;20179;-89
2022/02/09 13:16:12;;;;;;;14.63;2.30;;;10.40;99.90;;;;;;4982289;28;20234;-89
2022/02/09 14:07:07;;;;;;;0.97;0.70;;;10.50;99.90;;;;;;4995248;28;20306;-88
2022/02/09 14:55:42;;;;;;;0.30;0.30;;;10.20;99.90;;;;;;5003902;28;20251;-86
2022/02/09 14:58:11;;;;;;;4.73;1.43;;;10.20;99.90;;;;;;4998133;28;20218;-86
2022/02/09 15:03:46;;;;;;;6.90;0.90;;;10.20;99.90;;;;;;4980090;28;20830;-86
2022/02/09 15:11:39;;;;;;;7.30;1.10;;;10.00;99.90;;;;;;4997551;28;20297;-86
2022/02/09 15:14:21;;;;;;;3.40;1.23;;;10.10;99.90;;;;;;4968850;28;20720;-86
2022/02/09 15:22:22;;;;;;;5.23;2.07;;;10.10;99.90;;;;;;4997651;28;20251;-88
2022/02/09 15:24:43;;;;;;;0.27;0.27;;;10.00;99.90;;;;;;4995247;28;20387;-87
2022/02/09 15:27:17;;;;;;;0.40;0.40;;;10.00;99.90;;;;;;4996393;28;20224;-86
2022/02/09 15:29:43;;;;;;;2.70;1.47;;;10.00;99.90;;;;;;4994136;28;20218;-85
2022/02/09 15:34:59;;;;;;;0.60;0.60;;;9.90;99.90;;;;;;4997584;28;20230;-86
2022/02/09 15:39:56;;;;;;;2.03;1.07;;;9.70;99.90;;;;;;4980217;28;20255;-85
2022/02/09 16:22:01;;;;;;;5.20;0.60;;;9.50;99.90;;;;;;4997139;28;20219;-88
2022/02/09 16:24:44;;;;;;;9.77;1.37;;;9.50;99.90;;;;;;4987860;28;20230;-88
2022/02/09 16:38:15;;;;;;;0.90;0.90;;;9.40;99.90;;;;;;4994867;28;20303;-91
2022/02/09 16:46:16;;;;;;;1.13;1.13;;;9.40;99.90;;;;;;4971137;28;20269;-87
2022/02/09 16:48:49;;;;;;;0.60;0.40;;;9.30;99.90;;;;;;4999017;28;20228;-87
2022/02/09 16:51:18;;;;;;;2.13;1.97;;;9.30;99.90;;;;;;4999269;28;20226;-88
2022/02/09 16:53:51;;;;;;;1.10;1.10;;;9.30;99.90;;;;;;4999090;28;20222;-87
2022/02/09 16:56:28;;;;;;;2.10;0.90;;;9.30;99.90;;;;;;4997944;28;20242;-87
2022/02/09 17:20:40;;;;;;;0.80;0.80;;;9.40;99.90;;;;;;4986545;28;21007;-87
2022/02/09 17:23:06;;;;;;;1.30;0.60;;;9.40;99.90;;;;;;4982408;28;20252;-86
2022/02/09 17:25:32;;;;;;;1.33;1.10;;;9.40;99.90;;;;;;4989148;28;20215;-87
2022/02/09 17:27:58;;;;;;;7.63;1.20;;;9.40;99.90;;;;;;4998294;28;20596;-87
2022/02/09 17:30:58;;;;;;;1.53;1.43;;;9.40;99.90;;;;;;4998097;28;20235;-87
2022/02/09 17:36:05;;;;;;;4.07;2.00;;;9.40;99.90;;;;;;4999842;28;20233;-88
2022/02/09 17:38:41;;;;;;;2.20;1.27;;;9.40;99.90;;;;;;4974829;28;20720;-86
2022/02/09 17:57:51;;;;;;;1.07;0.90;;;9.40;99.90;;;;;;4998814;28;20990;-90
2022/02/09 18:00:16;;;;;;;1.37;1.27;;;9.40;99.90;;;;;;4996784;28;20244;-89
2022/02/09 18:02:48;;;;;;;2.07;1.97;;;9.40;99.90;;;;;;4980188;28;20231;-90
2022/02/09 18:07:52;;;;;;;2.67;1.67;;;9.30;99.90;;;;;;4996157;28;20205;-90
2022/02/09 18:10:41;;;;;;;10.40;2.27;;;9.40;99.90;;;;;;4984307;28;20223;-91
2022/02/09 18:44:56;;;;;;;2.03;1.67;;;9.30;99.90;;;;;;4997061;28;20315;-89
2022/02/09 19:03:36;;;;;;;2.53;2.33;;;9.20;99.90;;;;;;4980073;28;20234;-91
2022/02/09 19:06:16;;;;;;;4.97;2.20;;;9.20;99.90;;;;;;4989970;28;20611;-89
2022/02/09 19:14:20;;;;;;;1.80;1.60;;;9.20;99.90;;;;;;4998478;28;20223;-89
2022/02/09 19:28:16;;;;;;;8.37;2.30;;;9.30;99.90;;;;;;4998780;28;20223;-89
2022/02/09 19:46:05;;;;;;;4.97;2.30;;;9.30;99.90;;;;;;4995707;28;20227;-91
2022/02/09 19:48:37;;;;;;;4.13;2.67;;;9.30;99.90;;;;;;4974151;28;20285;-90
2022/02/09 19:54:10;;;;;;;2.73;2.17;;;9.30;99.90;;;;;;4977979;28;20775;-89
2022/02/09 19:56:38;;;;;;;3.27;2.73;;;9.30;99.90;;;;;;4994113;28;20726;-88
2022/02/09 19:59:20;;;;;;;2.40;2.00;;;9.30;99.90;;;;;;4994457;28;20280;-89
2022/02/09 20:01:46;;;;;;;2.47;2.00;;;9.20;99.90;;;;;;4981045;28;20234;-89
2022/02/09 20:04:13;;;;;;;7.57;2.57;;;9.30;99.90;;;;;;4995078;28;20654;-89
2022/02/09 20:06:40;;;;;;;4.47;2.00;;;9.30;99.90;;;;;;4986599;28;20254;-88
2022/02/09 20:09:05;;;;;;;9.20;2.10;;;9.30;99.90;;;;;;4995048;28;20219;-89
2022/02/09 20:11:31;;;;;;;3.03;2.17;;;9.40;99.90;;;;;;4971250;28;20562;-89
2022/02/09 20:13:57;;;;;;;6.90;2.40;;;9.30;99.90;;;;;;4997270;28;20230;-89
2022/02/09 20:16:24;;;;;;;12.43;2.67;;;9.30;99.90;;;;;;4996788;28;20211;-92
2022/02/09 20:18:51;;;;;;;2.60;1.80;;;9.30;99.90;;;;;;4976986;28;20255;-89
2022/02/09 20:21:19;;;;;;;1.10;1.10;;;9.30;99.90;;;;;;4963362;28;20303;-90
2022/02/09 20:23:45;;;;;;;6.97;2.80;;;9.30;99.90;;;;;;4985557;28;20227;-92
2022/02/09 20:26:13;;;;;;;5.90;1.87;;;9.30;99.90;;;;;;4995236;28;20232;-91
2022/02/09 20:28:43;;;;;;;4.67;1.90;;;9.30;99.90;;;;;;4996638;28;20194;-93
2022/02/09 20:31:13;;;;;;;1.43;1.33;;;9.30;99.90;;;;;;4987748;28;20183;-87
2022/02/09 20:33:45;;;;;;;1.63;1.50;;;9.30;99.90;;;;;;4996999;28;20249;-92
2022/02/09 20:36:13;;;;;;;1.30;1.20;;;9.30;99.90;;;;;;4980405;28;20229;-89
2022/02/09 20:38:41;;;;;;;3.63;2.50;;;9.20;99.90;;;;;;4983680;28;20326;-89
2022/02/09 20:41:09;;;;;;;4.63;1.63;;;9.30;99.90;;;;;;4981888;28;20257;-91
2022/02/09 20:43:43;;;;;;;3.10;1.93;;;9.30;99.90;;;;;;4997506;28;20240;-88
2022/02/09 20:46:09;;;;;;;3.43;2.50;;;9.30;99.90;;;;;;4991663;28;20219;-89
2022/02/09 20:48:34;;;;;;;10.33;2.73;;;9.30;99.90;;;;;;4990820;28;20278;-86
2022/02/09 20:51:01;;;;;;;5.17;2.33;;;9.30;99.90;;;;;;4981464;28;20235;-89
2022/02/09 20:53:28;;;;;;;5.67;1.80;;;9.30;99.90;;;;;;4965834;28;20218;-87
2022/02/09 20:55:54;;;;;;;1.80;1.40;;;9.30;99.90;;;;;;4990666;28;20262;-88
2022/02/09 20:58:21;;;;;;;3.10;2.37;;;9.30;99.90;;;;;;4993464;28;20196;-88
2022/02/09 21:00:57;;;;;;;6.57;2.40;;;9.30;99.90;;;;;;4992264;28;20219;-88
2022/02/09 21:06:33;;;;;;;2.40;2.20;;;9.30;99.90;;;;;;4997964;28;20238;-89
2022/02/09 21:09:26;;;;;;;3.30;2.53;;;9.30;99.90;;;;;;4984809;28;20227;-88
2022/02/09 21:12:11;;;;;;;2.10;1.63;;;9.20;99.90;;;;;;4985123;28;20250;-91
2022/02/09 21:17:39;;;;;;;5.90;2.30;;;9.30;99.90;;;;;;4981304;28;20306;-90
2022/02/09 21:20:46;;;;;;;2.10;2.00;;;9.20;99.90;;;;;;4982164;28;20231;-90
2022/02/09 21:57:41;;;;;;;6.07;1.87;;;9.10;99.90;;;;;;4982206;28;20586;-88
2022/02/09 22:00:26;;;;;;;11.93;3.10;;;9.10;99.90;;;;;;4997624;28;20215;-88
2022/02/09 22:16:56;;;;;;;1.30;1.00;;;9.00;99.90;;;;;;4983734;28;20202;-90
2022/02/09 22:19:45;;;;;;;1.90;1.77;;;8.90;99.90;;;;;;4981333;28;20215;-89
2022/02/09 22:22:30;;;;;;;1.87;1.77;;;8.90;99.90;;;;;;4988265;28;20222;-86
2022/02/09 22:30:39;;;;;;;2.57;1.93;;;8.80;99.90;;;;;;4997284;28;20262;-89
2022/02/09 22:54:27;;;;;;;2.10;1.37;;;8.70;99.90;;;;;;4996952;28;21087;-87
2022/02/09 22:56:53;;;;;;;3.43;2.07;;;8.70;99.90;;;;;;5000275;28;20374;-89
2022/02/09 23:02:26;;;;;;;4.30;1.80;;;8.70;99.90;;;;;;4966437;28;20224;-89
2022/02/09 23:13:28;;;;;;;1.60;1.50;;;8.60;99.90;;;;;;4996889;28;20639;-91
